Weather at Wilkeys Airport

Public forecast

Using degrees Fahrenheit for public forecast. Weather courtesy of forecast.io.

Closest aviation weather report (METAR) to Wilkeys Airport

Closest report is Athens Municipal Airport, 9.8 nm (18.2 km) W.

(retrieved 0 seconds ago)

Closest aviation forecast (TAF) to Wilkeys Airport

Closest forecast is Tyler Pounds Regional Airport, 16.0 nm (29.5 km) NE.

2023/09/29 18:22 (retrieved 1 hour ago)

TAF KTYR 291720Z 2918/3018 15007KT P6SM SCT050 FM300100 13005KT P6SM SKC FM301600 16007KT P6SM SKC